createdAt,value
2019-06-10T00:00:31.122Z,1010.40
2019-06-10T00:01:06.576Z,1010.42
2019-06-10T00:01:40.790Z,1010.39
2019-06-10T00:02:14.290Z,1010.38
2019-06-10T00:02:50.789Z,1010.37
2019-06-10T00:03:25.800Z,1010.37
2019-06-10T00:04:05.117Z,1010.36
2019-06-10T00:04:36.846Z,1010.36
2019-06-10T00:05:12.406Z,1010.40
2019-06-10T00:05:48.028Z,1010.37
2019-06-10T00:06:23.415Z,1010.37
2019-06-10T00:07:00.995Z,1010.34
2019-06-10T00:07:34.256Z,1010.30
2019-06-10T00:08:11.958Z,1010.32
2019-06-10T00:08:45.167Z,1010.29
2019-06-10T00:09:21.110Z,1010.27
2019-06-10T00:09:56.222Z,1010.29
2019-06-10T00:10:31.451Z,1010.29
2019-06-10T00:11:07.820Z,1010.30
2019-06-10T00:11:42.259Z,1010.30
2019-06-10T00:12:17.725Z,1010.29
2019-06-10T00:12:55.389Z,1010.27
2019-06-10T00:13:28.549Z,1010.28
2019-06-10T00:14:04.577Z,1010.26
2019-06-10T00:14:41.670Z,1010.26
2019-06-10T00:15:14.858Z,1010.29
2019-06-10T00:15:51.547Z,1010.24
2019-06-10T00:16:25.575Z,1010.22
2019-06-10T00:17:02.033Z,1010.22
2019-06-10T00:17:50.637Z,1010.23
2019-06-10T00:18:34.321Z,1010.17
2019-06-10T00:18:47.350Z,1010.14
2019-06-10T00:19:22.808Z,1010.19
2019-06-10T00:19:59.201Z,1010.17
2019-06-10T00:20:33.793Z,1010.17
2019-06-10T00:21:11.221Z,1010.13
2019-06-10T00:21:44.907Z,1010.16
2019-06-10T00:22:21.571Z,1010.15
2019-06-10T00:22:57.398Z,1010.13
2019-06-10T00:23:32.082Z,1010.12
2019-06-10T00:24:08.272Z,1010.15
2019-06-10T00:24:42.599Z,1010.11
2019-06-10T00:25:17.950Z,1010.13
2019-06-10T00:25:53.282Z,1010.17
2019-06-10T00:26:30.613Z,1010.14
2019-06-10T00:27:05.567Z,1010.14
2019-06-10T00:27:41.870Z,1010.14
2019-06-10T00:28:15.082Z,1010.15
2019-06-10T00:28:51.336Z,1010.12
2019-06-10T00:29:25.914Z,1010.13
2019-06-10T00:30:03.391Z,1010.09
2019-06-10T00:30:36.707Z,1010.12
2019-06-10T00:31:12.374Z,1010.10
2019-06-10T00:31:47.898Z,1010.12
2019-06-10T00:32:23.269Z,1010.09
2019-06-10T00:32:58.813Z,1010.04
2019-06-10T00:33:34.261Z,1010.04
2019-06-10T00:34:12.101Z,1010.07
2019-06-10T00:34:45.342Z,1010.02
2019-06-10T00:35:21.080Z,1010.01
2019-06-10T00:35:56.026Z,1009.97
2019-06-10T00:36:31.491Z,1009.98
2019-06-10T00:37:09.177Z,1009.94
2019-06-10T00:37:42.124Z,1009.90
2019-06-10T00:38:17.502Z,1009.88
2019-06-10T00:38:52.836Z,1009.86
2019-06-10T00:39:28.419Z,1009.88
2019-06-10T00:40:05.470Z,1009.86
2019-06-10T00:40:41.143Z,1009.86
2019-06-10T00:41:14.660Z,1009.83
2019-06-10T00:41:52.014Z,1009.86
2019-06-10T00:42:25.606Z,1009.82
2019-06-10T00:43:02.625Z,1009.77
2019-06-10T00:43:36.506Z,1009.79
2019-06-10T00:44:12.798Z,1009.78
2019-06-10T00:44:47.218Z,1009.77
2019-06-10T00:45:22.687Z,1009.78
2019-06-10T00:45:58.407Z,1009.73
2019-06-10T00:46:33.873Z,1009.72
2019-06-10T00:47:14.283Z,1009.68
2019-06-10T00:47:44.473Z,1009.69
2019-06-10T00:48:26.116Z,1009.66
2019-06-10T00:48:55.562Z,1009.64
2019-06-10T00:49:31.680Z,1009.70
2019-06-10T00:50:08.193Z,1009.65
2019-06-10T00:50:41.975Z,1009.62
2019-06-10T00:51:17.608Z,1009.63
2019-06-10T00:51:53.080Z,1009.61
2019-06-10T00:52:30.720Z,1009.67
2019-06-10T00:53:04.492Z,1009.62
2019-06-10T00:53:39.147Z,1009.62
2019-06-10T00:54:15.709Z,1009.61
2019-06-10T00:54:51.736Z,1009.62
2019-06-10T00:55:25.474Z,1009.62
2019-06-10T00:56:02.442Z,1009.60
2019-06-10T00:56:36.498Z,1009.57
2019-06-10T00:57:12.337Z,1009.59
2019-06-10T00:57:47.298Z,1009.57
2019-06-10T00:58:22.639Z,1009.54
2019-06-10T00:58:57.810Z,1009.55
2019-06-10T00:59:33.223Z,1009.52
2019-06-10T01:00:23.119Z,1009.53
2019-06-10T01:00:43.976Z,1009.53
2019-06-10T01:01:21.745Z,1009.50
2019-06-10T01:01:54.628Z,1009.52
2019-06-10T01:02:31.743Z,1009.48
2019-06-10T01:03:06.008Z,1009.52
2019-06-10T01:03:41.525Z,1009.49
2019-06-10T01:04:16.523Z,1009.50
2019-06-10T01:04:51.546Z,1009.50
2019-06-10T01:05:27.176Z,1009.53
2019-06-10T01:06:03.085Z,1009.51
2019-06-10T01:06:38.105Z,1009.51
2019-06-10T01:07:14.788Z,1009.52
2019-06-10T01:07:50.781Z,1009.50
2019-06-10T01:08:25.055Z,1009.52
2019-06-10T01:09:00.658Z,1009.50
2019-06-10T01:09:35.805Z,1009.49
2019-06-10T01:10:12.819Z,1009.49
2019-06-10T01:10:46.839Z,1009.48
2019-06-10T01:11:26.858Z,1009.48
2019-06-10T01:11:57.352Z,1009.47
2019-06-10T01:12:33.302Z,1009.47
2019-06-10T01:13:09.668Z,1009.47
2019-06-10T01:13:44.036Z,1009.48
2019-06-10T01:14:21.359Z,1009.45
2019-06-10T01:14:54.689Z,1009.44
2019-06-10T01:15:31.158Z,1009.44
2019-06-10T01:16:05.506Z,1009.41
2019-06-10T01:16:41.259Z,1009.41
2019-06-10T01:17:16.623Z,1009.39
2019-06-10T01:17:52.082Z,1009.42
2019-06-10T01:18:35.647Z,1009.38
2019-06-10T01:19:03.793Z,1009.34
2019-06-10T01:19:38.544Z,1009.38
2019-06-10T01:20:15.643Z,1009.34
2019-06-10T01:20:51.565Z,1009.33
2019-06-10T01:21:25.146Z,1009.29
2019-06-10T01:22:01.595Z,1009.28
2019-06-10T01:22:35.851Z,1009.30
2019-06-10T01:23:13.805Z,1009.29
2019-06-10T01:23:46.991Z,1009.27
2019-06-10T01:24:22.478Z,1009.26
2019-06-10T01:24:57.789Z,1009.28
2019-06-10T01:25:33.170Z,1009.30
2019-06-10T01:26:12.310Z,1009.26
2019-06-10T01:26:44.020Z,1009.28
2019-06-10T01:27:21.069Z,1009.30
2019-06-10T01:27:54.851Z,1009.30
2019-06-10T01:28:31.447Z,1009.29
2019-06-10T01:29:05.642Z,1009.29
2019-06-10T01:29:41.604Z,1009.25
2019-06-10T01:30:21.653Z,1009.29
2019-06-10T01:30:51.701Z,1009.27
2019-06-10T01:31:26.784Z,1009.27
2019-06-10T01:32:02.100Z,1009.26
2019-06-10T01:32:37.526Z,1009.26
2019-06-10T01:33:14.436Z,1009.23
2019-06-10T01:33:48.369Z,1009.21
2019-06-10T01:34:23.799Z,1009.21
2019-06-10T01:35:01.114Z,1009.21
2019-06-10T01:35:34.528Z,1009.19
2019-06-10T01:36:12.650Z,1009.18
2019-06-10T01:36:45.443Z,1009.16
2019-06-10T01:37:21.866Z,1009.17
2019-06-10T01:37:56.290Z,1009.14
2019-06-10T01:38:31.779Z,1009.15
2019-06-10T01:39:07.408Z,1009.12
2019-06-10T01:39:42.826Z,1009.13
2019-06-10T01:40:18.087Z,1009.13
2019-06-10T01:40:53.603Z,1009.11
2019-06-10T01:41:30.552Z,1009.12
2019-06-10T01:42:04.597Z,1009.10
2019-06-10T01:42:41.276Z,1009.11
2019-06-10T01:43:17.320Z,1009.06
2019-06-10T01:43:51.321Z,1009.08
2019-06-10T01:44:26.221Z,1009.05
2019-06-10T01:45:01.683Z,1009.04
2019-06-10T01:45:37.054Z,1009.02
2019-06-10T01:46:14.112Z,1009.05
2019-06-10T01:46:47.984Z,1009.03
2019-06-10T01:47:23.338Z,1009.01
2019-06-10T01:47:58.798Z,1009.03
2019-06-10T01:48:44.321Z,1008.97
2019-06-10T01:49:11.543Z,1008.98
2019-06-10T01:49:45.032Z,1008.97
2019-06-10T01:50:21.818Z,1009.00
2019-06-10T01:50:55.891Z,1008.96
2019-06-10T01:51:31.707Z,1008.97
2019-06-10T01:52:07.241Z,1008.98
2019-06-10T01:52:41.981Z,1009.00
2019-06-10T01:53:18.583Z,1008.98
2019-06-10T01:53:52.680Z,1008.95
2019-06-10T01:54:28.240Z,1008.97
2019-06-10T01:55:03.705Z,1008.94
2019-06-10T01:55:41.451Z,1008.92
2019-06-10T01:56:15.470Z,1008.94
2019-06-10T01:56:51.070Z,1008.95
2019-06-10T01:57:25.528Z,1008.92
2019-06-10T01:58:00.971Z,1008.92
2019-06-10T01:58:36.431Z,1008.94
2019-06-10T01:59:13.731Z,1008.93
2019-06-10T01:59:47.554Z,1008.91
2019-06-10T02:00:25.867Z,1008.90
2019-06-10T02:00:58.284Z,1008.87
2019-06-10T02:01:33.845Z,1008.87
2019-06-10T02:02:12.079Z,1008.86
2019-06-10T02:02:45.051Z,1008.86
2019-06-10T02:03:23.736Z,1008.87
2019-06-10T02:03:55.675Z,1008.85
2019-06-10T02:04:32.053Z,1008.86
2019-06-10T02:05:06.617Z,1008.86
2019-06-10T02:05:42.126Z,1008.84
2019-06-10T02:06:20.554Z,1008.78
2019-06-10T02:06:52.866Z,1008.83
2019-06-10T02:07:28.356Z,1008.83
2019-06-10T02:08:03.813Z,1008.81
2019-06-10T02:08:41.686Z,1008.85
2019-06-10T02:09:15.537Z,1008.86
2019-06-10T02:09:51.767Z,1008.83
2019-06-10T02:10:25.994Z,1008.82
2019-06-10T02:11:01.401Z,1008.82
2019-06-10T02:11:36.730Z,1008.81
2019-06-10T02:12:14.607Z,1008.80
2019-06-10T02:12:47.724Z,1008.79
2019-06-10T02:13:23.200Z,1008.76
2019-06-10T02:14:00.781Z,1008.73
2019-06-10T02:14:34.408Z,1008.72
2019-06-10T02:15:12.089Z,1008.71
2019-06-10T02:15:44.811Z,1008.72
2019-06-10T02:16:23.905Z,1008.69
2019-06-10T02:16:55.942Z,1008.68
2019-06-10T02:17:31.588Z,1008.64
2019-06-10T02:18:06.567Z,1008.67
2019-06-10T02:18:54.426Z,1008.68
2019-06-10T02:19:18.589Z,1008.68
2019-06-10T02:19:52.868Z,1008.68
2019-06-10T02:20:28.261Z,1008.70
2019-06-10T02:21:03.568Z,1008.64
2019-06-10T02:21:41.575Z,1008.63
2019-06-10T02:22:17.003Z,1008.62
2019-06-10T02:22:51.592Z,1008.63
2019-06-10T02:23:25.527Z,1008.62
2019-06-10T02:24:01.026Z,1008.61
2019-06-10T02:24:36.038Z,1008.60
2019-06-10T02:25:12.542Z,1008.57
2019-06-10T02:25:47.137Z,1008.56
2019-06-10T02:26:23.685Z,1008.57
2019-06-10T02:26:58.278Z,1008.55
2019-06-10T02:27:33.647Z,1008.53
2019-06-10T02:28:08.983Z,1008.49
2019-06-10T02:28:44.370Z,1008.48
2019-06-10T02:29:21.785Z,1008.44
2019-06-10T02:29:55.344Z,1008.43
2019-06-10T02:30:41.724Z,1008.43
2019-06-10T02:31:06.145Z,1008.43
2019-06-10T02:31:43.111Z,1008.41
2019-06-10T02:32:22.525Z,1008.43
2019-06-10T02:32:52.505Z,1008.42
2019-06-10T02:33:30.307Z,1008.43
2019-06-10T02:34:03.076Z,1008.42
2019-06-10T02:34:50.706Z,1008.38
2019-06-10T02:35:22.613Z,1008.40
2019-06-10T02:35:49.518Z,1008.42
2019-06-10T02:36:31.233Z,1008.40
2019-06-10T02:37:00.201Z,1008.40
2019-06-10T02:37:38.255Z,1008.34
2019-06-10T02:38:13.264Z,1008.36
2019-06-10T02:38:46.176Z,1008.36
2019-06-10T02:39:28.113Z,1008.34
2019-06-10T02:39:57.378Z,1008.32
2019-06-10T02:40:36.397Z,1008.31
2019-06-10T02:41:07.998Z,1008.31
2019-06-10T02:41:44.717Z,1008.28
2019-06-10T02:42:21.618Z,1008.30
2019-06-10T02:42:54.148Z,1008.29
2019-06-10T02:43:32.245Z,1008.25
2019-06-10T02:44:05.069Z,1008.25
2019-06-10T02:44:40.287Z,1008.25
2019-06-10T02:45:19.672Z,1008.25
2019-06-10T02:45:53.113Z,1008.23
2019-06-10T02:46:31.028Z,1008.21
2019-06-10T02:47:03.375Z,1008.18
2019-06-10T02:47:38.171Z,1008.19
2019-06-10T02:48:13.704Z,1008.19
2019-06-10T02:48:48.139Z,1008.17
2019-06-10T02:49:46.281Z,1008.18
2019-06-10T02:50:03.153Z,1008.15
2019-06-10T02:50:36.449Z,1008.13
2019-06-10T02:51:13.103Z,1008.11
2019-06-10T02:51:45.088Z,1008.11
2019-06-10T02:52:23.253Z,1008.13
2019-06-10T02:52:56.017Z,1008.10
2019-06-10T02:53:35.676Z,1008.09
2019-06-10T02:54:06.811Z,1008.09
2019-06-10T02:54:43.813Z,1008.07
2019-06-10T02:55:19.947Z,1008.05
2019-06-10T02:55:53.921Z,1008.05
2019-06-10T02:56:31.011Z,1008.07
2019-06-10T02:57:04.450Z,1008.04
2019-06-10T02:57:40.428Z,1008.05
2019-06-10T02:58:15.613Z,1007.99
2019-06-10T02:58:53.200Z,1008.05
2019-06-10T02:59:28.920Z,1008.04
2019-06-10T03:00:06.520Z,1008.04
2019-06-10T03:00:43.217Z,1008.01
2019-06-10T03:01:16.331Z,1008.02
2019-06-10T03:01:47.677Z,1008.01
2019-06-10T03:02:28.890Z,1008.02
2019-06-10T03:02:58.296Z,1007.96
2019-06-10T03:03:43.299Z,1007.98
2019-06-10T03:04:08.891Z,1007.97
2019-06-10T03:04:44.115Z,1007.97
2019-06-10T03:05:20.201Z,1007.99
2019-06-10T03:05:54.562Z,1007.98
2019-06-10T03:06:34.132Z,1007.95
2019-06-10T03:07:05.708Z,1007.95
2019-06-10T03:07:44.023Z,1008.00
2019-06-10T03:08:17.957Z,1008.00
2019-06-10T03:08:54.598Z,1007.95
2019-06-10T03:09:31.767Z,1007.98
2019-06-10T03:10:04.659Z,1007.99
2019-06-10T03:10:38.141Z,1007.95
2019-06-10T03:11:14.121Z,1007.99
2019-06-10T03:11:49.179Z,1007.98
2019-06-10T03:12:25.801Z,1007.95
2019-06-10T03:13:02.354Z,1007.99
2019-06-10T03:13:35.640Z,1007.98
2019-06-10T03:14:12.997Z,1007.96
2019-06-10T03:14:46.841Z,1007.95
2019-06-10T03:15:24.518Z,1007.97
2019-06-10T03:15:57.977Z,1007.97
2019-06-10T03:16:33.262Z,1007.96
2019-06-10T03:17:08.845Z,1007.98
2019-06-10T03:17:44.267Z,1007.96
2019-06-10T03:18:19.897Z,1007.94
2019-06-10T03:18:55.081Z,1007.95
2019-06-10T03:19:44.129Z,1007.97
2019-06-10T03:20:05.626Z,1007.91
2019-06-10T03:20:42.545Z,1007.97
2019-06-10T03:21:16.451Z,1007.96
2019-06-10T03:21:52.146Z,1007.92
2019-06-10T03:22:28.355Z,1007.94
2019-06-10T03:23:02.995Z,1007.93
2019-06-10T03:23:38.031Z,1007.95
2019-06-10T03:24:13.407Z,1007.96
2019-06-10T03:24:48.846Z,1007.95
2019-06-10T03:25:25.978Z,1007.95
2019-06-10T03:25:59.280Z,1007.95
2019-06-10T03:26:34.775Z,1007.94
2019-06-10T03:27:12.530Z,1007.92
2019-06-10T03:27:45.579Z,1007.92
2019-06-10T03:28:23.911Z,1007.92
2019-06-10T03:28:56.571Z,1007.93
2019-06-10T03:29:32.754Z,1007.92
2019-06-10T03:30:15.645Z,1007.95
2019-06-10T03:30:53.344Z,1007.95
2019-06-10T03:31:18.784Z,1007.95
2019-06-10T03:31:55.206Z,1007.93
2019-06-10T03:32:35.421Z,1007.95
2019-06-10T03:33:04.964Z,1007.97
2019-06-10T03:33:42.074Z,1008.00
2019-06-10T03:34:15.585Z,1007.98
2019-06-10T03:34:54.441Z,1007.97
2019-06-10T03:35:26.609Z,1007.96
2019-06-10T03:36:02.959Z,1007.96
2019-06-10T03:36:36.482Z,1007.98
2019-06-10T03:37:12.900Z,1007.99
2019-06-10T03:37:47.505Z,1007.97
2019-06-10T03:38:23.657Z,1007.96
2019-06-10T03:38:58.199Z,1007.94
2019-06-10T03:39:33.464Z,1007.91
2019-06-10T03:40:08.790Z,1007.89
2019-06-10T03:40:43.950Z,1007.88
2019-06-10T03:41:19.184Z,1007.94
2019-06-10T03:41:54.899Z,1007.90
2019-06-10T03:42:32.339Z,1007.97
2019-06-10T03:43:05.508Z,1007.97
2019-06-10T03:43:42.681Z,1007.96
2019-06-10T03:44:16.908Z,1007.98
2019-06-10T03:44:52.580Z,1007.98
2019-06-10T03:45:28.378Z,1007.96
2019-06-10T03:46:03.072Z,1008.00
2019-06-10T03:46:38.023Z,1008.00
2019-06-10T03:47:13.456Z,1008.02
2019-06-10T03:47:49.226Z,1007.96
2019-06-10T03:48:26.743Z,1007.96
2019-06-10T03:49:02.970Z,1007.94
2019-06-10T03:49:49.136Z,1007.97
2019-06-10T03:50:13.028Z,1007.94
2019-06-10T03:50:46.409Z,1007.94
2019-06-10T03:51:23.941Z,1007.91
2019-06-10T03:51:57.342Z,1007.89
2019-06-10T03:52:32.610Z,1007.91
2019-06-10T03:53:07.740Z,1007.87
2019-06-10T03:53:43.426Z,1007.87
2019-06-10T03:54:19.241Z,1007.83
2019-06-10T03:54:54.038Z,1007.84
2019-06-10T03:55:29.279Z,1007.80
2019-06-10T03:56:04.844Z,1007.83
2019-06-10T03:56:42.747Z,1007.84
2019-06-10T03:57:17.112Z,1007.82
2019-06-10T03:57:52.620Z,1007.82
2019-06-10T03:58:29.163Z,1007.83
2019-06-10T03:59:02.874Z,1007.85
2019-06-10T03:59:38.111Z,1007.84
2019-06-10T04:00:13.946Z,1007.87
2019-06-10T04:00:48.703Z,1007.86
2019-06-10T04:01:26.420Z,1007.88
2019-06-10T04:01:59.558Z,1007.88
2019-06-10T04:02:34.896Z,1007.85
2019-06-10T04:03:11.995Z,1007.91
2019-06-10T04:03:45.629Z,1007.87
2019-06-10T04:04:23.730Z,1007.87
2019-06-10T04:04:56.731Z,1007.85
2019-06-10T04:05:33.117Z,1007.84
2019-06-10T04:06:07.555Z,1007.86
2019-06-10T04:06:44.280Z,1007.85
2019-06-10T04:07:20.106Z,1007.84
2019-06-10T04:07:53.964Z,1007.83
2019-06-10T04:08:29.292Z,1007.85
2019-06-10T04:09:04.666Z,1007.84
2019-06-10T04:09:42.386Z,1007.83
2019-06-10T04:10:15.684Z,1007.83
2019-06-10T04:10:52.054Z,1007.83
2019-06-10T04:11:28.455Z,1007.85
2019-06-10T04:12:02.407Z,1007.84
2019-06-10T04:12:38.147Z,1007.84
2019-06-10T04:13:13.715Z,1007.82
2019-06-10T04:13:49.185Z,1007.85
2019-06-10T04:14:25.442Z,1007.85
2019-06-10T04:14:59.781Z,1007.82
2019-06-10T04:15:35.499Z,1007.86
2019-06-10T04:16:12.794Z,1007.86
2019-06-10T04:16:46.470Z,1007.85
2019-06-10T04:17:22.659Z,1007.86
2019-06-10T04:17:57.581Z,1007.84
2019-06-10T04:18:33.130Z,1007.84
2019-06-10T04:19:08.395Z,1007.83
2019-06-10T04:19:43.738Z,1007.82
2019-06-10T04:20:19.798Z,1007.85
2019-06-10T04:20:54.365Z,1007.81
2019-06-10T04:21:29.628Z,1007.81
2019-06-10T04:22:05.001Z,1007.81
2019-06-10T04:22:40.364Z,1007.79
2019-06-10T04:23:15.744Z,1007.77
2019-06-10T04:23:52.758Z,1007.78
2019-06-10T04:24:27.312Z,1007.76
2019-06-10T04:25:03.002Z,1007.73
2019-06-10T04:25:37.269Z,1007.74
2019-06-10T04:26:12.697Z,1007.73
2019-06-10T04:26:48.096Z,1007.71
2019-06-10T04:27:25.211Z,1007.72
2019-06-10T04:27:59.303Z,1007.70
2019-06-10T04:28:34.880Z,1007.69
2019-06-10T04:29:12.517Z,1007.66
2019-06-10T04:29:45.962Z,1007.68
2019-06-10T04:30:24.354Z,1007.67
2019-06-10T04:30:56.803Z,1007.69
2019-06-10T04:31:33.101Z,1007.66
2019-06-10T04:32:07.858Z,1007.65
2019-06-10T04:32:43.535Z,1007.66
2019-06-10T04:33:20.261Z,1007.66
2019-06-10T04:33:54.457Z,1007.67
2019-06-10T04:34:32.761Z,1007.65
2019-06-10T04:35:05.039Z,1007.64
2019-06-10T04:35:42.573Z,1007.63
2019-06-10T04:36:15.777Z,1007.64
2019-06-10T04:36:52.585Z,1007.62
2019-06-10T04:37:27.752Z,1007.62
2019-06-10T04:38:02.526Z,1007.60
2019-06-10T04:38:37.432Z,1007.57
2019-06-10T04:39:12.721Z,1007.58
2019-06-10T04:39:48.169Z,1007.58
2019-06-10T04:40:24.696Z,1007.56
2019-06-10T04:40:58.986Z,1007.57
2019-06-10T04:41:34.348Z,1007.58
2019-06-10T04:42:09.733Z,1007.54
2019-06-10T04:42:45.235Z,1007.56
2019-06-10T04:43:22.971Z,1007.56
2019-06-10T04:43:56.237Z,1007.51
2019-06-10T04:44:32.956Z,1007.56
2019-06-10T04:45:07.036Z,1007.52
2019-06-10T04:45:42.933Z,1007.52
2019-06-10T04:46:18.600Z,1007.48
2019-06-10T04:46:53.243Z,1007.49
2019-06-10T04:47:29.614Z,1007.50
2019-06-10T04:48:03.938Z,1007.47
2019-06-10T04:48:39.560Z,1007.49
2019-06-10T04:49:14.938Z,1007.47
2019-06-10T04:49:52.132Z,1007.47
2019-06-10T04:50:35.427Z,1007.45
2019-06-10T04:51:02.753Z,1007.47
2019-06-10T04:51:36.584Z,1007.50
2019-06-10T04:52:12.262Z,1007.50
2019-06-10T04:52:47.120Z,1007.49
2019-06-10T04:53:23.726Z,1007.46
2019-06-10T04:53:57.847Z,1007.49
2019-06-10T04:54:33.445Z,1007.46
2019-06-10T04:55:09.069Z,1007.50
2019-06-10T04:55:44.609Z,1007.51
2019-06-10T04:56:19.974Z,1007.54
2019-06-10T04:56:55.266Z,1007.54
2019-06-10T04:57:32.825Z,1007.54
2019-06-10T04:58:06.978Z,1007.55
2019-06-10T04:58:43.212Z,1007.55
2019-06-10T04:59:18.769Z,1007.50
2019-06-10T04:59:53.404Z,1007.48
2019-06-10T05:00:29.140Z,1007.50
2019-06-10T05:01:04.119Z,1007.46
2019-06-10T05:01:39.633Z,1007.46
2019-06-10T05:02:15.110Z,1007.46
2019-06-10T05:02:52.252Z,1007.48
2019-06-10T05:03:27.807Z,1007.47
2019-06-10T05:04:03.145Z,1007.46
2019-06-10T05:04:37.806Z,1007.49
2019-06-10T05:05:13.268Z,1007.51
2019-06-10T05:05:48.500Z,1007.48
2019-06-10T05:06:25.505Z,1007.48
2019-06-10T05:07:01.983Z,1007.48
2019-06-10T05:07:37.023Z,1007.46
2019-06-10T05:08:13.015Z,1007.46
2019-06-10T05:08:46.420Z,1007.40
2019-06-10T05:09:24.488Z,1007.42
2019-06-10T05:09:57.522Z,1007.42
2019-06-10T05:10:33.220Z,1007.43
2019-06-10T05:11:08.437Z,1007.43
2019-06-10T05:11:43.635Z,1007.40
2019-06-10T05:12:19.227Z,1007.40
2019-06-10T05:12:54.627Z,1007.38
2019-06-10T05:13:30.079Z,1007.36
2019-06-10T05:14:05.252Z,1007.36
2019-06-10T05:14:43.123Z,1007.32
2019-06-10T05:15:16.054Z,1007.36
2019-06-10T05:15:52.727Z,1007.32
2019-06-10T05:16:30.033Z,1007.35
2019-06-10T05:17:02.334Z,1007.37
2019-06-10T05:17:37.371Z,1007.34
2019-06-10T05:18:13.151Z,1007.38
2019-06-10T05:18:51.509Z,1007.37
2019-06-10T05:19:25.816Z,1007.36
2019-06-10T05:19:59.100Z,1007.42
2019-06-10T05:20:50.820Z,1007.38
2019-06-10T05:21:12.833Z,1007.40
2019-06-10T05:21:45.923Z,1007.41
2019-06-10T05:22:23.997Z,1007.37
2019-06-10T05:22:56.749Z,1007.38
2019-06-10T05:23:32.929Z,1007.38
2019-06-10T05:24:07.547Z,1007.35
2019-06-10T05:24:42.979Z,1007.37
2019-06-10T05:25:19.724Z,1007.37
2019-06-10T05:25:56.200Z,1007.42
2019-06-10T05:26:30.474Z,1007.40
2019-06-10T05:27:04.862Z,1007.40
2019-06-10T05:27:42.737Z,1007.33
2019-06-10T05:28:15.560Z,1007.34
2019-06-10T05:28:52.449Z,1007.34
2019-06-10T05:29:28.054Z,1007.37
2019-06-10T05:30:02.331Z,1007.32
2019-06-10T05:30:37.498Z,1007.30
2019-06-10T05:31:13.211Z,1007.34
2019-06-10T05:31:48.755Z,1007.31
2019-06-10T05:32:25.904Z,1007.31
2019-06-10T05:32:59.525Z,1007.32
2019-06-10T05:33:35.309Z,1007.33
2019-06-10T05:34:12.829Z,1007.31
2019-06-10T05:34:45.816Z,1007.33
2019-06-10T05:35:23.269Z,1007.30
2019-06-10T05:35:56.736Z,1007.32
2019-06-10T05:36:34.760Z,1007.36
2019-06-10T05:37:07.700Z,1007.32
2019-06-10T05:37:43.231Z,1007.35
2019-06-10T05:38:18.690Z,1007.37
2019-06-10T05:38:54.169Z,1007.37
2019-06-10T05:39:30.761Z,1007.37
2019-06-10T05:40:05.264Z,1007.39
2019-06-10T05:40:42.617Z,1007.38
2019-06-10T05:41:16.068Z,1007.38
2019-06-10T05:41:53.107Z,1007.42
2019-06-10T05:42:27.862Z,1007.43
2019-06-10T05:43:02.577Z,1007.42
2019-06-10T05:43:37.532Z,1007.42
2019-06-10T05:44:13.424Z,1007.39
2019-06-10T05:44:48.420Z,1007.43
2019-06-10T05:45:25.892Z,1007.38
2019-06-10T05:45:59.152Z,1007.43
2019-06-10T05:46:34.997Z,1007.38
2019-06-10T05:47:12.253Z,1007.39
2019-06-10T05:47:45.721Z,1007.43
2019-06-10T05:48:22.657Z,1007.40
2019-06-10T05:48:56.628Z,1007.38
2019-06-10T05:49:35.656Z,1007.40
2019-06-10T05:50:07.524Z,1007.41
2019-06-10T05:50:43.500Z,1007.38
2019-06-10T05:51:18.861Z,1007.39
2019-06-10T05:51:54.224Z,1007.39
2019-06-10T05:52:29.756Z,1007.39
2019-06-10T05:53:05.226Z,1007.38
2019-06-10T05:53:42.622Z,1007.38
2019-06-10T05:54:16.023Z,1007.37
2019-06-10T05:54:52.174Z,1007.39
2019-06-10T05:55:27.071Z,1007.36
2019-06-10T05:56:02.378Z,1007.40
2019-06-10T05:56:37.474Z,1007.42
2019-06-10T05:57:13.031Z,1007.46
2019-06-10T05:57:48.511Z,1007.44
2019-06-10T05:58:24.727Z,1007.49
2019-06-10T05:59:01.566Z,1007.43
2019-06-10T05:59:36.000Z,1007.43
2019-06-10T06:00:13.917Z,1007.42
2019-06-10T06:00:45.756Z,1007.45
2019-06-10T06:01:22.927Z,1007.42
2019-06-10T06:01:57.352Z,1007.42
2019-06-10T06:02:34.203Z,1007.41
2019-06-10T06:03:08.171Z,1007.42
2019-06-10T06:03:43.999Z,1007.41
2019-06-10T06:04:19.082Z,1007.43
2019-06-10T06:04:54.615Z,1007.41
2019-06-10T06:05:30.214Z,1007.45
2019-06-10T06:06:05.563Z,1007.45
2019-06-10T06:06:42.474Z,1007.41
2019-06-10T06:07:16.605Z,1007.40
2019-06-10T06:08:02.246Z,1007.41
2019-06-10T06:08:29.121Z,1007.38
2019-06-10T06:09:03.148Z,1007.36
2019-06-10T06:09:38.604Z,1007.35
2019-06-10T06:10:13.882Z,1007.34
2019-06-10T06:10:49.205Z,1007.36
2019-06-10T06:11:25.240Z,1007.35
2019-06-10T06:12:02.351Z,1007.36
2019-06-10T06:12:35.794Z,1007.34
2019-06-10T06:13:12.761Z,1007.34
2019-06-10T06:13:45.957Z,1007.33
2019-06-10T06:14:22.637Z,1007.34
2019-06-10T06:14:56.688Z,1007.38
2019-06-10T06:15:34.493Z,1007.34
2019-06-10T06:16:07.577Z,1007.35
2019-06-10T06:16:43.314Z,1007.35
2019-06-10T06:17:18.422Z,1007.36
2019-06-10T06:18:06.518Z,1007.36
2019-06-10T06:18:33.198Z,1007.33
2019-06-10T06:19:06.771Z,1007.38
2019-06-10T06:19:43.328Z,1007.36
2019-06-10T06:20:17.396Z,1007.36
2019-06-10T06:20:52.708Z,1007.34
2019-06-10T06:21:32.432Z,1007.31
2019-06-10T06:22:03.506Z,1007.27
2019-06-10T06:22:38.994Z,1007.31
2019-06-10T06:23:14.343Z,1007.22
2019-06-10T06:23:49.712Z,1007.26
2019-06-10T06:24:25.549Z,1007.19
2019-06-10T06:25:03.340Z,1007.22
2019-06-10T06:25:39.791Z,1007.20
2019-06-10T06:26:15.877Z,1007.24
2019-06-10T06:26:46.844Z,1007.20
2019-06-10T06:27:22.679Z,1007.21
2019-06-10T06:27:58.239Z,1007.22
2019-06-10T06:28:34.591Z,1007.26
2019-06-10T06:29:08.655Z,1007.26
2019-06-10T06:29:43.994Z,1007.28
2019-06-10T06:30:19.472Z,1007.28
2019-06-10T06:30:54.832Z,1007.30
2019-06-10T06:31:32.594Z,1007.30
2019-06-10T06:32:05.573Z,1007.31
2019-06-10T06:32:43.382Z,1007.30
2019-06-10T06:33:16.196Z,1007.33
2019-06-10T06:33:52.764Z,1007.33
2019-06-10T06:34:28.311Z,1007.34
2019-06-10T06:35:02.818Z,1007.37
2019-06-10T06:35:42.984Z,1007.37
2019-06-10T06:36:13.646Z,1007.31
2019-06-10T06:36:49.225Z,1007.31
2019-06-10T06:37:25.007Z,1007.31
2019-06-10T06:38:02.461Z,1007.33
2019-06-10T06:38:37.189Z,1007.32
2019-06-10T06:39:12.861Z,1007.35
2019-06-10T06:39:46.533Z,1007.35
2019-06-10T06:40:23.097Z,1007.35
2019-06-10T06:40:57.642Z,1007.36
2019-06-10T06:41:34.516Z,1007.36
2019-06-10T06:42:08.715Z,1007.36
2019-06-10T06:42:43.979Z,1007.33
2019-06-10T06:43:19.359Z,1007.33
2019-06-10T06:43:54.685Z,1007.28
2019-06-10T06:44:32.467Z,1007.31
2019-06-10T06:45:05.118Z,1007.27
2019-06-10T06:45:42.453Z,1007.33
2019-06-10T06:46:15.907Z,1007.32
2019-06-10T06:46:53.114Z,1007.28
2019-06-10T06:47:27.761Z,1007.31
2019-06-10T06:48:03.011Z,1007.33
2019-06-10T06:48:40.305Z,1007.26
2019-06-10T06:49:14.000Z,1007.31
2019-06-10T06:49:49.371Z,1007.25
2019-06-10T06:50:25.680Z,1007.28
2019-06-10T06:51:04.458Z,1007.26
2019-06-10T06:51:47.567Z,1007.26
2019-06-10T06:52:12.661Z,1007.25
2019-06-10T06:53:15.729Z,1007.22
2019-06-10T06:53:32.414Z,1007.23
2019-06-10T06:53:57.002Z,1007.26
2019-06-10T06:54:33.385Z,1007.23
2019-06-10T06:55:08.227Z,1007.22
2019-06-10T06:55:43.993Z,1007.24
2019-06-10T06:56:19.440Z,1007.22
2019-06-10T06:56:55.243Z,1007.23
2019-06-10T06:57:33.294Z,1007.22
2019-06-10T06:58:06.072Z,1007.24
2019-06-10T06:58:43.313Z,1007.23
2019-06-10T06:59:16.893Z,1007.22
2019-06-10T06:59:52.605Z,1007.25
2019-06-10T07:00:43.053Z,1007.27
2019-06-10T07:01:10.203Z,1007.27
2019-06-10T07:01:39.544Z,1007.26
2019-06-10T07:02:14.037Z,1007.27
2019-06-10T07:02:49.518Z,1007.22
2019-06-10T07:03:24.841Z,1007.28
2019-06-10T07:04:02.456Z,1007.30
2019-06-10T07:04:37.082Z,1007.29
2019-06-10T07:05:12.565Z,1007.27
2019-06-10T07:05:46.968Z,1007.28
2019-06-10T07:06:22.917Z,1007.30
2019-06-10T07:06:58.222Z,1007.30
2019-06-10T07:07:35.656Z,1007.32
2019-06-10T07:08:09.161Z,1007.33
2019-06-10T07:08:57.747Z,1007.33